sensor_id;sensor_type;location;lat;lon;timestamp;pressure;altitude;pressure_sealevel;temperature
20848;BMP180;10584;50.854;12.902;2023-04-24T00:02:47;96922.00;;;12.20
20848;BMP180;10584;50.854;12.902;2023-04-24T00:08:29;96918.00;;;12.30
20848;BMP180;10584;50.854;12.902;2023-04-24T00:13:57;96918.00;;;12.30
20848;BMP180;10584;50.854;12.902;2023-04-24T00:19:25;96907.00;;;12.30
20848;BMP180;10584;50.854;12.902;2023-04-24T00:24:52;96920.00;;;12.20
20848;BMP180;10584;50.854;12.902;2023-04-24T00:30:13;96900.00;;;12.30
20848;BMP180;10584;50.854;12.902;2023-04-24T00:35:35;96910.00;;;12.20
20848;BMP180;10584;50.854;12.902;2023-04-24T00:41:03;96913.00;;;12.10
20848;BMP180;10584;50.854;12.902;2023-04-24T00:47:02;96905.00;;;12.00
20848;BMP180;10584;50.854;12.902;2023-04-24T00:52:50;96906.00;;;12.10
20848;BMP180;10584;50.854;12.902;2023-04-24T00:58:32;96897.00;;;12.00
20848;BMP180;10584;50.854;12.902;2023-04-24T01:04:11;96897.00;;;11.90
20848;BMP180;10584;50.854;12.902;2023-04-24T01:09:39;96899.00;;;11.90
20848;BMP180;10584;50.854;12.902;2023-04-24T01:15:34;96901.00;;;11.80
20848;BMP180;10584;50.854;12.902;2023-04-24T01:20:59;96900.00;;;11.90
20848;BMP180;10584;50.854;12.902;2023-04-24T01:27:02;96887.00;;;11.70
20848;BMP180;10584;50.854;12.902;2023-04-24T01:32:58;96889.00;;;11.60
20848;BMP180;10584;50.854;12.902;2023-04-24T01:38:33;96889.00;;;11.70
20848;BMP180;10584;50.854;12.902;2023-04-24T01:43:58;96892.00;;;11.70
20848;BMP180;10584;50.854;12.902;2023-04-24T01:49:26;96892.00;;;11.70
20848;BMP180;10584;50.854;12.902;2023-04-24T01:54:49;96904.00;;;11.60
20848;BMP180;10584;50.854;12.902;2023-04-24T02:00:11;96894.00;;;11.50
20848;BMP180;10584;50.854;12.902;2023-04-24T02:05:39;96895.00;;;11.50
20848;BMP180;10584;50.854;12.902;2023-04-24T02:11:20;96895.00;;;11.40
20848;BMP180;10584;50.854;12.902;2023-04-24T02:17:03;96906.00;;;11.50
20848;BMP180;10584;50.854;12.902;2023-04-24T02:22:52;96898.00;;;11.50
20848;BMP180;10584;50.854;12.902;2023-04-24T02:28:32;96900.00;;;11.40
20848;BMP180;10584;50.854;12.902;2023-04-24T02:33:59;96900.00;;;11.40
20848;BMP180;10584;50.854;12.902;2023-04-24T02:39:26;96896.00;;;11.40
20848;BMP180;10584;50.854;12.902;2023-04-24T02:44:50;96897.00;;;11.40
20848;BMP180;10584;50.854;12.902;2023-04-24T02:50:12;96896.00;;;11.30
20848;BMP180;10584;50.854;12.902;2023-04-24T02:55:34;96891.00;;;11.30
20848;BMP180;10584;50.854;12.902;2023-04-24T03:00:56;96888.00;;;11.20
20848;BMP180;10584;50.854;12.902;2023-04-24T03:06:17;96888.00;;;11.30
20848;BMP180;10584;50.854;12.902;2023-04-24T03:11:45;96901.00;;;11.20
20848;BMP180;10584;50.854;12.902;2023-04-24T03:17:34;96897.00;;;11.10
20848;BMP180;10584;50.854;12.902;2023-04-24T03:23:19;96899.00;;;11.00
20848;BMP180;10584;50.854;12.902;2023-04-24T03:29:01;96895.00;;;10.90
20848;BMP180;10584;50.854;12.902;2023-04-24T03:34:29;96894.00;;;10.90
20848;BMP180;10584;50.854;12.902;2023-04-24T03:39:55;96892.00;;;10.80
20848;BMP180;10584;50.854;12.902;2023-04-24T03:45:19;96895.00;;;10.80
20848;BMP180;10584;50.854;12.902;2023-04-24T03:50:43;96899.00;;;10.70
20848;BMP180;10584;50.854;12.902;2023-04-24T03:56:19;96908.00;;;10.80
20848;BMP180;10584;50.854;12.902;2023-04-24T04:02:01;96899.00;;;10.80
20848;BMP180;10584;50.854;12.902;2023-04-24T04:07:36;96890.00;;;10.70
20848;BMP180;10584;50.854;12.902;2023-04-24T04:13:10;96884.00;;;10.70
20848;BMP180;10584;50.854;12.902;2023-04-24T04:18:34;96890.00;;;10.70
20848;BMP180;10584;50.854;12.902;2023-04-24T04:24:01;96901.00;;;10.80
20848;BMP180;10584;50.854;12.902;2023-04-24T04:29:31;96900.00;;;10.80
20848;BMP180;10584;50.854;12.902;2023-04-24T04:34:54;96895.00;;;10.80
20848;BMP180;10584;50.854;12.902;2023-04-24T04:40:18;96897.00;;;10.80
20848;BMP180;10584;50.854;12.902;2023-04-24T04:45:55;96886.00;;;10.80
20848;BMP180;10584;50.854;12.902;2023-04-24T04:52:02;96884.00;;;10.90
20848;BMP180;10584;50.854;12.902;2023-04-24T04:57:51;96881.00;;;10.80
20848;BMP180;10584;50.854;12.902;2023-04-24T05:03:25;96897.00;;;10.90
20848;BMP180;10584;50.854;12.902;2023-04-24T05:09:03;96909.00;;;11.00
20848;BMP180;10584;50.854;12.902;2023-04-24T05:14:39;96914.00;;;11.10
20848;BMP180;10584;50.854;12.902;2023-04-24T05:20:01;96913.00;;;11.20
20848;BMP180;10584;50.854;12.902;2023-04-24T05:25:23;96919.00;;;11.20
20848;BMP180;10584;50.854;12.902;2023-04-24T05:31:04;96931.00;;;11.30
20848;BMP180;10584;50.854;12.902;2023-04-24T05:37:02;96935.00;;;11.50
20848;BMP180;10584;50.854;12.902;2023-04-24T05:42:51;96935.00;;;11.50
20848;BMP180;10584;50.854;12.902;2023-04-24T05:48:32;96925.00;;;11.60
20848;BMP180;10584;50.854;12.902;2023-04-24T05:54:04;96924.00;;;11.80
20848;BMP180;10584;50.854;12.902;2023-04-24T05:59:33;96929.00;;;12.00
20848;BMP180;10584;50.854;12.902;2023-04-24T06:04:58;96925.00;;;12.00
20848;BMP180;10584;50.854;12.902;2023-04-24T06:10:20;96926.00;;;12.10
20848;BMP180;10584;50.854;12.902;2023-04-24T06:15:44;96928.00;;;12.20
20848;BMP180;10584;50.854;12.902;2023-04-24T06:21:24;96928.00;;;12.20
20848;BMP180;10584;50.854;12.902;2023-04-24T06:27:00;96921.00;;;12.20
20848;BMP180;10584;50.854;12.902;2023-04-24T06:32:45;96932.00;;;12.10
20848;BMP180;10584;50.854;12.902;2023-04-24T06:38:49;96928.00;;;12.10
20848;BMP180;10584;50.854;12.902;2023-04-24T06:44:14;96919.00;;;12.20
20848;BMP180;10584;50.854;12.902;2023-04-24T06:49:42;96915.00;;;12.10
20848;BMP180;10584;50.854;12.902;2023-04-24T06:55:05;96919.00;;;12.30
20848;BMP180;10584;50.854;12.902;2023-04-24T07:00:26;96907.00;;;12.30
20848;BMP180;10584;50.854;12.902;2023-04-24T07:05:57;96917.00;;;12.40
20848;BMP180;10584;50.854;12.902;2023-04-24T07:11:39;96929.00;;;12.20
20848;BMP180;10584;50.854;12.902;2023-04-24T07:17:25;96942.00;;;12.30
20848;BMP180;10584;50.854;12.902;2023-04-24T07:23:13;96938.00;;;12.40
20848;BMP180;10584;50.854;12.902;2023-04-24T07:28:51;96940.00;;;12.30
20848;BMP180;10584;50.854;12.902;2023-04-24T07:34:24;96934.00;;;12.20
20848;BMP180;10584;50.854;12.902;2023-04-24T07:39:48;96930.00;;;12.20
20848;BMP180;10584;50.854;12.902;2023-04-24T07:45:10;96947.00;;;12.20
20848;BMP180;10584;50.854;12.902;2023-04-24T07:50:32;96943.00;;;12.40
20848;BMP180;10584;50.854;12.902;2023-04-24T07:55:56;96949.00;;;12.50
20848;BMP180;10584;50.854;12.902;2023-04-24T08:01:20;96956.00;;;12.50
20848;BMP180;10584;50.854;12.902;2023-04-24T08:07:04;96963.00;;;12.70
20848;BMP180;10584;50.854;12.902;2023-04-24T08:12:37;96965.00;;;12.60
20848;BMP180;10584;50.854;12.902;2023-04-24T08:18:20;96969.00;;;12.70
20848;BMP180;10584;50.854;12.902;2023-04-24T08:24:01;96976.00;;;12.70
20848;BMP180;10584;50.854;12.902;2023-04-24T08:29:31;96970.00;;;12.70
20848;BMP180;10584;50.854;12.902;2023-04-24T08:34:56;96965.00;;;12.80
20848;BMP180;10584;50.854;12.902;2023-04-24T08:40:18;96967.00;;;12.90
20848;BMP180;10584;50.854;12.902;2023-04-24T08:45:41;96964.00;;;12.80
20848;BMP180;10584;50.854;12.902;2023-04-24T08:51:26;96963.00;;;13.00
20848;BMP180;10584;50.854;12.902;2023-04-24T08:57:15;96966.00;;;13.20
20848;BMP180;10584;50.854;12.902;2023-04-24T09:03:00;96969.00;;;13.30
20848;BMP180;10584;50.854;12.902;2023-04-24T09:08:46;96974.00;;;13.30
20848;BMP180;10584;50.854;12.902;2023-04-24T09:14:16;96971.00;;;13.10
20848;BMP180;10584;50.854;12.902;2023-04-24T09:19:44;96968.00;;;13.20
20848;BMP180;10584;50.854;12.902;2023-04-24T09:25:09;96963.00;;;13.40
20848;BMP180;10584;50.854;12.902;2023-04-24T09:30:33;96957.00;;;13.20
20848;BMP180;10584;50.854;12.902;2023-04-24T09:35:58;96975.00;;;13.20
20848;BMP180;10584;50.854;12.902;2023-04-24T09:41:55;96979.00;;;13.30
20848;BMP180;10584;50.854;12.902;2023-04-24T09:47:44;96972.00;;;13.30
20848;BMP180;10584;50.854;12.902;2023-04-24T09:53:30;96973.00;;;13.30
20848;BMP180;10584;50.854;12.902;2023-04-24T09:59:21;96974.00;;;13.40
20848;BMP180;10584;50.854;12.902;2023-04-24T10:04:58;96962.00;;;13.80
20848;BMP180;10584;50.854;12.902;2023-04-24T10:10:43;96961.00;;;14.30
20848;BMP180;10584;50.854;12.902;2023-04-24T10:16:22;96965.00;;;14.80
20848;BMP180;10584;50.854;12.902;2023-04-24T10:21:57;96966.00;;;14.70
20848;BMP180;10584;50.854;12.902;2023-04-24T10:27:42;96970.00;;;14.60
20848;BMP180;10584;50.854;12.902;2023-04-24T10:33:33;96969.00;;;14.60
20848;BMP180;10584;50.854;12.902;2023-04-24T10:39:08;96975.00;;;14.60
20848;BMP180;10584;50.854;12.902;2023-04-24T10:44:37;96979.00;;;14.80
20848;BMP180;10584;50.854;12.902;2023-04-24T10:49:59;96975.00;;;15.10
20848;BMP180;10584;50.854;12.902;2023-04-24T11:01:53;97002.00;;;14.60
20848;BMP180;10584;50.854;12.902;2023-04-24T11:07:57;96984.00;;;14.50
20848;BMP180;10584;50.854;12.902;2023-04-24T11:13:23;96988.00;;;14.90
20848;BMP180;10584;50.854;12.902;2023-04-24T11:30:19;97033.00;;;14.50
20848;BMP180;10584;50.854;12.902;2023-04-24T11:35:41;97026.00;;;14.50
20848;BMP180;10584;50.854;12.902;2023-04-24T11:41:24;97030.00;;;14.60
20848;BMP180;10584;50.854;12.902;2023-04-24T11:47:11;97029.00;;;15.10
20848;BMP180;10584;50.854;12.902;2023-04-24T11:52:57;97042.00;;;15.40
20848;BMP180;10584;50.854;12.902;2023-04-24T11:58:37;97039.00;;;15.40
20848;BMP180;10584;50.854;12.902;2023-04-24T12:04:03;97042.00;;;15.30
20848;BMP180;10584;50.854;12.902;2023-04-24T12:09:45;97050.00;;;14.70
20848;BMP180;10584;50.854;12.902;2023-04-24T12:15:08;97052.00;;;14.30
20848;BMP180;10584;50.854;12.902;2023-04-24T12:20:31;97052.00;;;14.10
20848;BMP180;10584;50.854;12.902;2023-04-24T12:26:08;97042.00;;;14.40
20848;BMP180;10584;50.854;12.902;2023-04-24T12:31:45;97053.00;;;14.40
20848;BMP180;10584;50.854;12.902;2023-04-24T12:37:34;97060.00;;;14.80
20848;BMP180;10584;50.854;12.902;2023-04-24T12:43:19;97060.00;;;14.80
20848;BMP180;10584;50.854;12.902;2023-04-24T12:48:57;97045.00;;;14.50
20848;BMP180;10584;50.854;12.902;2023-04-24T12:54:26;97044.00;;;14.60
20848;BMP180;10584;50.854;12.902;2023-04-24T12:59:59;97040.00;;;15.10
20848;BMP180;10584;50.854;12.902;2023-04-24T13:05:27;97031.00;;;15.50
20848;BMP180;10584;50.854;12.902;2023-04-24T13:11:03;97039.00;;;15.20
20848;BMP180;10584;50.854;12.902;2023-04-24T13:16:40;97042.00;;;15.00
20848;BMP180;10584;50.854;12.902;2023-04-24T13:22:11;97040.00;;;14.70
20848;BMP180;10584;50.854;12.902;2023-04-24T13:27:55;97036.00;;;15.00
20848;BMP180;10584;50.854;12.902;2023-04-24T13:33:24;97041.00;;;15.10
20848;BMP180;10584;50.854;12.902;2023-04-24T13:38:56;97042.00;;;14.70
20848;BMP180;10584;50.854;12.902;2023-04-24T13:44:31;97033.00;;;15.00
20848;BMP180;10584;50.854;12.902;2023-04-24T13:49:53;97029.00;;;15.50
20848;BMP180;10584;50.854;12.902;2023-04-24T13:55:15;97028.00;;;16.00
20848;BMP180;10584;50.854;12.902;2023-04-24T14:00:36;97031.00;;;15.70
20848;BMP180;10584;50.854;12.902;2023-04-24T14:06:10;97026.00;;;15.50
20848;BMP180;10584;50.854;12.902;2023-04-24T14:12:08;97026.00;;;15.30
20848;BMP180;10584;50.854;12.902;2023-04-24T14:17:56;97038.00;;;14.80
20848;BMP180;10584;50.854;12.902;2023-04-24T14:23:35;97030.00;;;14.90
20848;BMP180;10584;50.854;12.902;2023-04-24T14:29:07;97029.00;;;14.60
20848;BMP180;10584;50.854;12.902;2023-04-24T14:34:36;97026.00;;;14.70
20848;BMP180;10584;50.854;12.902;2023-04-24T14:39:58;97033.00;;;14.40
20848;BMP180;10584;50.854;12.902;2023-04-24T14:45:39;97025.00;;;14.50
20848;BMP180;10584;50.854;12.902;2023-04-24T14:51:13;97031.00;;;14.00
20848;BMP180;10584;50.854;12.902;2023-04-24T14:57:02;97039.00;;;14.00
20848;BMP180;10584;50.854;12.902;2023-04-24T15:02:45;97042.00;;;14.00
20848;BMP180;10584;50.854;12.902;2023-04-24T15:08:27;97051.00;;;13.90
20848;BMP180;10584;50.854;12.902;2023-04-24T15:13:53;97049.00;;;14.00
20848;BMP180;10584;50.854;12.902;2023-04-24T15:19:18;97052.00;;;13.90
20848;BMP180;10584;50.854;12.902;2023-04-24T15:24:47;97065.00;;;13.60
20848;BMP180;10584;50.854;12.902;2023-04-24T15:30:09;97071.00;;;13.40
20848;BMP180;10584;50.854;12.902;2023-04-24T15:35:32;97077.00;;;13.60
20848;BMP180;10584;50.854;12.902;2023-04-24T15:40:55;97089.00;;;13.40
20848;BMP180;10584;50.854;12.902;2023-04-24T15:46:45;97096.00;;;13.20
20848;BMP180;10584;50.854;12.902;2023-04-24T15:52:35;97107.00;;;13.00
20848;BMP180;10584;50.854;12.902;2023-04-24T15:58:24;97111.00;;;12.80
20848;BMP180;10584;50.854;12.902;2023-04-24T16:04:07;97134.00;;;12.50
20848;BMP180;10584;50.854;12.902;2023-04-24T16:09:42;97133.00;;;12.30
20848;BMP180;10584;50.854;12.902;2023-04-24T16:15:22;97143.00;;;12.80
20848;BMP180;10584;50.854;12.902;2023-04-24T16:21:04;97144.00;;;12.70
20848;BMP180;10584;50.854;12.902;2023-04-24T16:26:41;97145.00;;;12.50
20848;BMP180;10584;50.854;12.902;2023-04-24T16:32:21;97141.00;;;12.50
20848;BMP180;10584;50.854;12.902;2023-04-24T16:37:59;97151.00;;;12.60
20848;BMP180;10584;50.854;12.902;2023-04-24T16:43:34;97146.00;;;13.10
20848;BMP180;10584;50.854;12.902;2023-04-24T16:49:05;97146.00;;;12.60
20848;BMP180;10584;50.854;12.902;2023-04-24T16:54:33;97153.00;;;12.40
20848;BMP180;10584;50.854;12.902;2023-04-24T16:59:56;97159.00;;;12.20
20848;BMP180;10584;50.854;12.902;2023-04-24T17:05:29;97166.00;;;12.10
20848;BMP180;10584;50.854;12.902;2023-04-24T17:11:19;97166.00;;;11.80
20848;BMP180;10584;50.854;12.902;2023-04-24T17:17:04;97169.00;;;11.90
20848;BMP180;10584;50.854;12.902;2023-04-24T17:22:43;97179.00;;;11.80
20848;BMP180;10584;50.854;12.902;2023-04-24T17:28:29;97173.00;;;11.60
20848;BMP180;10584;50.854;12.902;2023-04-24T17:34:06;97180.00;;;11.70
20848;BMP180;10584;50.854;12.902;2023-04-24T17:39:35;97182.00;;;11.70
20848;BMP180;10584;50.854;12.902;2023-04-24T17:44:57;97206.00;;;11.30
20848;BMP180;10584;50.854;12.902;2023-04-24T17:50:18;97189.00;;;11.10
20848;BMP180;10584;50.854;12.902;2023-04-24T17:55:40;97193.00;;;10.90
20848;BMP180;10584;50.854;12.902;2023-04-24T18:01:03;97199.00;;;11.00
20848;BMP180;10584;50.854;12.902;2023-04-24T18:06:31;97240.00;;;10.50
20848;BMP180;10584;50.854;12.902;2023-04-24T18:12:24;97252.00;;;10.30
20848;BMP180;10584;50.854;12.902;2023-04-24T18:18:09;97253.00;;;10.20
20848;BMP180;10584;50.854;12.902;2023-04-24T18:23:39;97249.00;;;10.00
20848;BMP180;10584;50.854;12.902;2023-04-24T18:29:08;97262.00;;;9.70
20848;BMP180;10584;50.854;12.902;2023-04-24T18:34:34;97257.00;;;9.60
20848;BMP180;10584;50.854;12.902;2023-04-24T18:39:56;97266.00;;;9.50
20848;BMP180;10584;50.854;12.902;2023-04-24T18:45:18;97271.00;;;9.50
20848;BMP180;10584;50.854;12.902;2023-04-24T18:50:39;97280.00;;;9.40
20848;BMP180;10584;50.854;12.902;2023-04-24T18:56:14;97281.00;;;9.20
20848;BMP180;10584;50.854;12.902;2023-04-24T19:01:48;97283.00;;;9.40
20848;BMP180;10584;50.854;12.902;2023-04-24T19:07:22;97293.00;;;9.30
20848;BMP180;10584;50.854;12.902;2023-04-24T19:13:15;97303.00;;;9.30
20848;BMP180;10584;50.854;12.902;2023-04-24T19:18:57;97311.00;;;9.30
20848;BMP180;10584;50.854;12.902;2023-04-24T19:24:27;97309.00;;;9.20
20848;BMP180;10584;50.854;12.902;2023-04-24T19:29:49;97313.00;;;9.30
20848;BMP180;10584;50.854;12.902;2023-04-24T19:35:12;97303.00;;;9.40
20848;BMP180;10584;50.854;12.902;2023-04-24T19:40:33;97307.00;;;9.40
20848;BMP180;10584;50.854;12.902;2023-04-24T19:45:56;97309.00;;;9.50
20848;BMP180;10584;50.854;12.902;2023-04-24T19:51:48;97315.00;;;9.50
20848;BMP180;10584;50.854;12.902;2023-04-24T19:57:42;97319.00;;;9.30
20848;BMP180;10584;50.854;12.902;2023-04-24T20:03:35;97321.00;;;9.40
20848;BMP180;10584;50.854;12.902;2023-04-24T20:09:07;97316.00;;;9.20
20848;BMP180;10584;50.854;12.902;2023-04-24T20:14:29;97319.00;;;9.30
20848;BMP180;10584;50.854;12.902;2023-04-24T20:19:52;97311.00;;;9.10
20848;BMP180;10584;50.854;12.902;2023-04-24T20:25:14;97312.00;;;9.10
20848;BMP180;10584;50.854;12.902;2023-04-24T20:30:36;97313.00;;;9.10
20848;BMP180;10584;50.854;12.902;2023-04-24T20:36:02;97318.00;;;9.20
20848;BMP180;10584;50.854;12.902;2023-04-24T20:41:53;97313.00;;;9.00
20848;BMP180;10584;50.854;12.902;2023-04-24T20:47:38;97309.00;;;9.20
20848;BMP180;10584;50.854;12.902;2023-04-24T20:53:32;97319.00;;;9.00
20848;BMP180;10584;50.854;12.902;2023-04-24T20:59:07;97315.00;;;9.20
20848;BMP180;10584;50.854;12.902;2023-04-24T21:04:52;97321.00;;;9.00
20848;BMP180;10584;50.854;12.902;2023-04-24T21:10:24;97311.00;;;9.10
20848;BMP180;10584;50.854;12.902;2023-04-24T21:15:50;97310.00;;;9.00
20848;BMP180;10584;50.854;12.902;2023-04-24T21:21:24;97310.00;;;9.00
20848;BMP180;10584;50.854;12.902;2023-04-24T21:26:54;97310.00;;;8.90
20848;BMP180;10584;50.854;12.902;2023-04-24T21:32:45;97314.00;;;8.70
20848;BMP180;10584;50.854;12.902;2023-04-24T21:38:28;97303.00;;;8.90
20848;BMP180;10584;50.854;12.902;2023-04-24T21:44:06;97292.00;;;8.90
20848;BMP180;10584;50.854;12.902;2023-04-24T21:49:35;97308.00;;;8.80
20848;BMP180;10584;50.854;12.902;2023-04-24T21:54:59;97294.00;;;8.60
20848;BMP180;10584;50.854;12.902;2023-04-24T22:00:21;97288.00;;;8.80
20848;BMP180;10584;50.854;12.902;2023-04-24T22:05:48;97291.00;;;8.40
20848;BMP180;10584;50.854;12.902;2023-04-24T22:11:32;97291.00;;;8.50
20848;BMP180;10584;50.854;12.902;2023-04-24T22:17:19;97293.00;;;8.20
20848;BMP180;10584;50.854;12.902;2023-04-24T22:22:49;97303.00;;;8.40
20848;BMP180;10584;50.854;12.902;2023-04-24T22:28:33;97296.00;;;8.30
20848;BMP180;10584;50.854;12.902;2023-04-24T22:34:12;97303.00;;;8.20
20848;BMP180;10584;50.854;12.902;2023-04-24T22:39:34;97290.00;;;8.10
20848;BMP180;10584;50.854;12.902;2023-04-24T22:44:55;97295.00;;;7.90
20848;BMP180;10584;50.854;12.902;2023-04-24T22:50:17;97299.00;;;8.00
20848;BMP180;10584;50.854;12.902;2023-04-24T22:55:40;97285.00;;;7.90
20848;BMP180;10584;50.854;12.902;2023-04-24T23:01:02;97293.00;;;7.80
20848;BMP180;10584;50.854;12.902;2023-04-24T23:06:34;97296.00;;;7.50
20848;BMP180;10584;50.854;12.902;2023-04-24T23:12:20;97302.00;;;7.50
20848;BMP180;10584;50.854;12.902;2023-04-24T23:17:57;97290.00;;;7.40
20848;BMP180;10584;50.854;12.902;2023-04-24T23:23:31;97292.00;;;7.40
20848;BMP180;10584;50.854;12.902;2023-04-24T23:29:09;97287.00;;;7.40
20848;BMP180;10584;50.854;12.902;2023-04-24T23:34:37;97282.00;;;7.00
20848;BMP180;10584;50.854;12.902;2023-04-24T23:39:59;97288.00;;;6.90
20848;BMP180;10584;50.854;12.902;2023-04-24T23:45:20;97279.00;;;7.00
20848;BMP180;10584;50.854;12.902;2023-04-24T23:50:42;97279.00;;;6.90
20848;BMP180;10584;50.854;12.902;2023-04-24T23:56:17;97271.00;;;6.70
